Wall, SD (57790)

10:06 AM MDT on August 30, 2014 (GMT -0600)
RAWS PINNACLES SD US | Change Station
CLOSE
Current Station
Personal Weather Station
Location: Wall, SD
Elevation: 3080 ft
Nearby Weather Stations

Elev 3080 ft 43.88 °N, 102.24 °W | Updated 46 minutes ago

Clear
Clear
64 °F
Feels Like 64 °F
N
18
Wind Variable Wind from ESE
Gusts 24.0 mph

Today
High -- | Low -- °F
--% Chance of Precip.
Yesterday
High -- | Low -- °F
Precip. -- in
6:09 AM 7:28 PM
Waxing Crescent, 23% visible
Pressure 29.87 in
Visibility 10.0 miles
Clouds Clear
Dew Point 58 °F
Humidity 80%
Rainfall 0.00 in
Snow Depth Not available.
UV 5 out of 12
Pollen 9.70 out of 12
Air Quality Not available.
Flu Activity Not available.
METAR KPHP 301555Z AUTO 13013G20KT 10SM CLR 20/14 A2991 RMK AO2 SLP115 T02000139

More Conditions Fewer Conditions

Pressure 29.87 in
Visibility 10.0 miles
Clouds Clear
Dew Point 58 °F
Humidity 80%
Rainfall 0.00 in
Snow Depth Not available.
UV 5 out of 12
Pollen 9.70 out of 12
Air Quality Not available.
Flu Activity Not available.
METAR KPHP 301555Z AUTO 13013G20KT 10SM CLR 20/14 A2991 RMK AO2 SLP115 T02000139

More Conditions Fewer Conditions

10-Day Weather Forecast

Almanac

Astronomy

Aug. 30, 2014 Rise Set
Actual Time 6:09 AM MDT 7:28 PM MDT
Civil Twilight 5:40 AM MDT 7:57 PM MDT
Nautical Twilight 5:04 AM MDT 8:33 PM MDT
Astronomical Twilight 4:25 AM MDT 9:11 PM MDT
Moon 11:10 AM MDT 9:52 PM MDT
Length of Visible Light 14h 17m
Length of Day
13h 18m
Tomorrow will be 2m 54s shorter.
Waxing Crescent, 23% of the Moon is Illuminated
Today
Waxing Crescent
Sep 2
First Quarter
Sep 8
Full
Sep 15
Last Quarter
Sep 24
New

Today's Extremes

State Highs State Lows

Community

WunderPhotos

Upload Photos

1,748,555 photos uploaded!

WunderBlogs® & News

Nearby

Snow Depth

Station Depth Elevation
Blind Park 0 in 6890 ft

Earthquake Activity

City Distance Mag. Time & Date
No recent earthquake activity has been reported nearby.
Minimum magnitude displayed is 2.5.

Coastal Water Temperatures

Place Temperature
No Stations Reporting

Nearby Weather Stations